sensor_id;sensor_type;location;lat;lon;timestamp;P1;durP1;ratioP1;P2;durP2;ratioP2
16662;SDS011;8445;51.270;9.434;2024-03-02T00:00:29;14.47;;;11.70;;
16662;SDS011;8445;51.270;9.434;2024-03-02T00:02:55;15.07;;;12.23;;
16662;SDS011;8445;51.270;9.434;2024-03-02T00:05:22;14.40;;;11.90;;
16662;SDS011;8445;51.270;9.434;2024-03-02T00:10:27;14.20;;;11.77;;
16662;SDS011;8445;51.270;9.434;2024-03-02T00:13:06;14.57;;;11.70;;
16662;SDS011;8445;51.270;9.434;2024-03-02T00:18:11;19.10;;;13.00;;
16662;SDS011;8445;51.270;9.434;2024-03-02T00:20:44;13.87;;;12.47;;
16662;SDS011;8445;51.270;9.434;2024-03-02T00:23:12;12.70;;;11.30;;
16662;SDS011;8445;51.270;9.434;2024-03-02T00:33:43;13.57;;;11.30;;
16662;SDS011;8445;51.270;9.434;2024-03-02T00:36:11;13.47;;;11.47;;
16662;SDS011;8445;51.270;9.434;2024-03-02T00:38:47;13.40;;;12.03;;
16662;SDS011;8445;51.270;9.434;2024-03-02T00:41:17;13.43;;;11.50;;
16662;SDS011;8445;51.270;9.434;2024-03-02T00:43:57;15.50;;;11.83;;
16662;SDS011;8445;51.270;9.434;2024-03-02T00:46:35;18.93;;;12.07;;
16662;SDS011;8445;51.270;9.434;2024-03-02T00:49:03;14.33;;;11.77;;
16662;SDS011;8445;51.270;9.434;2024-03-02T00:51:36;19.10;;;11.70;;
16662;SDS011;8445;51.270;9.434;2024-03-02T00:54:07;14.90;;;11.03;;
16662;SDS011;8445;51.270;9.434;2024-03-02T00:56:35;13.73;;;11.33;;
16662;SDS011;8445;51.270;9.434;2024-03-02T00:59:01;14.57;;;11.23;;
16662;SDS011;8445;51.270;9.434;2024-03-02T01:01:28;16.43;;;10.87;;
16662;SDS011;8445;51.270;9.434;2024-03-02T01:03:54;13.67;;;11.47;;
16662;SDS011;8445;51.270;9.434;2024-03-02T01:06:20;17.53;;;11.57;;
16662;SDS011;8445;51.270;9.434;2024-03-02T01:08:47;15.50;;;11.73;;
16662;SDS011;8445;51.270;9.434;2024-03-02T01:11:16;15.40;;;10.90;;
16662;SDS011;8445;51.270;9.434;2024-03-02T01:13:43;14.90;;;11.50;;
16662;SDS011;8445;51.270;9.434;2024-03-02T01:16:11;16.83;;;11.93;;
16662;SDS011;8445;51.270;9.434;2024-03-02T01:18:37;17.60;;;12.40;;
16662;SDS011;8445;51.270;9.434;2024-03-02T01:21:03;15.87;;;12.17;;
16662;SDS011;8445;51.270;9.434;2024-03-02T01:23:29;13.70;;;11.90;;
16662;SDS011;8445;51.270;9.434;2024-03-02T01:25:55;13.53;;;11.67;;
16662;SDS011;8445;51.270;9.434;2024-03-02T01:28:21;16.87;;;12.07;;
16662;SDS011;8445;51.270;9.434;2024-03-02T01:30:47;17.07;;;12.23;;
16662;SDS011;8445;51.270;9.434;2024-03-02T01:33:14;15.07;;;11.30;;
16662;SDS011;8445;51.270;9.434;2024-03-02T01:35:41;13.77;;;11.00;;
16662;SDS011;8445;51.270;9.434;2024-03-02T01:38:07;14.00;;;11.87;;
16662;SDS011;8445;51.270;9.434;2024-03-02T01:40:33;18.40;;;11.40;;
16662;SDS011;8445;51.270;9.434;2024-03-02T01:43:01;13.70;;;11.03;;
16662;SDS011;8445;51.270;9.434;2024-03-02T01:45:28;14.30;;;12.13;;
16662;SDS011;8445;51.270;9.434;2024-03-02T01:47:54;15.90;;;11.13;;
16662;SDS011;8445;51.270;9.434;2024-03-02T01:50:27;13.47;;;11.13;;
16662;SDS011;8445;51.270;9.434;2024-03-02T01:52:55;14.20;;;11.00;;
16662;SDS011;8445;51.270;9.434;2024-03-02T01:55:22;13.17;;;10.93;;
16662;SDS011;8445;51.270;9.434;2024-03-02T01:57:48;21.73;;;12.43;;
16662;SDS011;8445;51.270;9.434;2024-03-02T02:00:19;13.47;;;11.67;;
16662;SDS011;8445;51.270;9.434;2024-03-02T02:02:46;14.63;;;11.70;;
16662;SDS011;8445;51.270;9.434;2024-03-02T02:05:16;13.53;;;10.80;;
16662;SDS011;8445;51.270;9.434;2024-03-02T02:07:43;13.33;;;11.43;;
16662;SDS011;8445;51.270;9.434;2024-03-02T02:10:09;12.33;;;10.17;;
16662;SDS011;8445;51.270;9.434;2024-03-02T02:12:36;13.17;;;11.77;;
16662;SDS011;8445;51.270;9.434;2024-03-02T02:15:03;12.00;;;10.67;;
16662;SDS011;8445;51.270;9.434;2024-03-02T02:17:49;12.37;;;11.00;;
16662;SDS011;8445;51.270;9.434;2024-03-02T02:20:15;12.70;;;10.60;;
16662;SDS011;8445;51.270;9.434;2024-03-02T02:22:52;13.37;;;11.00;;
16662;SDS011;8445;51.270;9.434;2024-03-02T02:25:29;16.90;;;11.33;;
16662;SDS011;8445;51.270;9.434;2024-03-02T02:27:55;14.30;;;11.30;;
16662;SDS011;8445;51.270;9.434;2024-03-02T02:30:29;15.00;;;12.53;;
16662;SDS011;8445;51.270;9.434;2024-03-02T02:32:58;15.80;;;11.47;;
16662;SDS011;8445;51.270;9.434;2024-03-02T02:35:24;14.37;;;11.50;;
16662;SDS011;8445;51.270;9.434;2024-03-02T02:37:50;13.83;;;11.17;;
16662;SDS011;8445;51.270;9.434;2024-03-02T02:40:18;21.67;;;10.73;;
16662;SDS011;8445;51.270;9.434;2024-03-02T02:42:44;12.63;;;11.30;;
16662;SDS011;8445;51.270;9.434;2024-03-02T02:45:11;12.60;;;10.97;;
16662;SDS011;8445;51.270;9.434;2024-03-02T02:47:40;13.50;;;11.47;;
16662;SDS011;8445;51.270;9.434;2024-03-02T02:50:10;21.73;;;12.13;;
16662;SDS011;8445;51.270;9.434;2024-03-02T02:52:38;21.87;;;11.90;;
16662;SDS011;8445;51.270;9.434;2024-03-02T02:55:06;13.57;;;12.10;;
16662;SDS011;8445;51.270;9.434;2024-03-02T02:57:37;21.70;;;13.00;;
16662;SDS011;8445;51.270;9.434;2024-03-02T03:00:13;17.30;;;12.77;;
16662;SDS011;8445;51.270;9.434;2024-03-02T03:02:41;22.07;;;14.73;;
16662;SDS011;8445;51.270;9.434;2024-03-02T03:05:09;20.50;;;13.60;;
16662;SDS011;8445;51.270;9.434;2024-03-02T03:07:37;18.63;;;13.43;;
16662;SDS011;8445;51.270;9.434;2024-03-02T03:10:05;17.63;;;13.70;;
16662;SDS011;8445;51.270;9.434;2024-03-02T03:12:33;17.97;;;13.67;;
16662;SDS011;8445;51.270;9.434;2024-03-02T03:15:00;18.17;;;13.00;;
16662;SDS011;8445;51.270;9.434;2024-03-02T03:17:26;19.67;;;14.37;;
16662;SDS011;8445;51.270;9.434;2024-03-02T03:19:52;20.90;;;15.07;;
16662;SDS011;8445;51.270;9.434;2024-03-02T03:22:18;20.30;;;14.10;;
16662;SDS011;8445;51.270;9.434;2024-03-02T03:24:44;26.20;;;14.63;;
16662;SDS011;8445;51.270;9.434;2024-03-02T03:27:10;21.20;;;13.13;;
16662;SDS011;8445;51.270;9.434;2024-03-02T03:29:37;18.73;;;13.63;;
16662;SDS011;8445;51.270;9.434;2024-03-02T03:32:03;23.17;;;15.37;;
16662;SDS011;8445;51.270;9.434;2024-03-02T03:34:34;20.60;;;14.40;;
16662;SDS011;8445;51.270;9.434;2024-03-02T03:37:00;23.07;;;14.30;;
16662;SDS011;8445;51.270;9.434;2024-03-02T03:39:27;21.27;;;13.60;;
16662;SDS011;8445;51.270;9.434;2024-03-02T03:41:56;20.20;;;13.90;;
16662;SDS011;8445;51.270;9.434;2024-03-02T03:44:22;18.67;;;15.37;;
16662;SDS011;8445;51.270;9.434;2024-03-02T03:46:48;16.77;;;13.90;;
16662;SDS011;8445;51.270;9.434;2024-03-02T03:49:14;19.17;;;14.30;;
16662;SDS011;8445;51.270;9.434;2024-03-02T03:51:40;20.23;;;14.30;;
16662;SDS011;8445;51.270;9.434;2024-03-02T03:54:06;21.60;;;14.60;;
16662;SDS011;8445;51.270;9.434;2024-03-02T03:56:31;20.17;;;14.57;;
16662;SDS011;8445;51.270;9.434;2024-03-02T03:58:57;19.50;;;14.33;;
16662;SDS011;8445;51.270;9.434;2024-03-02T04:01:25;17.13;;;14.27;;
16662;SDS011;8445;51.270;9.434;2024-03-02T04:03:51;18.80;;;13.73;;
16662;SDS011;8445;51.270;9.434;2024-03-02T04:06:16;23.90;;;13.73;;
16662;SDS011;8445;51.270;9.434;2024-03-02T04:08:42;21.27;;;15.67;;
16662;SDS011;8445;51.270;9.434;2024-03-02T04:11:08;26.00;;;14.93;;
16662;SDS011;8445;51.270;9.434;2024-03-02T04:13:34;19.33;;;14.80;;
16662;SDS011;8445;51.270;9.434;2024-03-02T04:16:00;21.17;;;14.30;;
16662;SDS011;8445;51.270;9.434;2024-03-02T04:18:26;19.80;;;14.50;;
16662;SDS011;8445;51.270;9.434;2024-03-02T04:20:52;19.83;;;14.43;;
16662;SDS011;8445;51.270;9.434;2024-03-02T04:23:18;22.03;;;15.57;;
16662;SDS011;8445;51.270;9.434;2024-03-02T04:25:43;20.67;;;14.77;;
16662;SDS011;8445;51.270;9.434;2024-03-02T04:28:09;22.03;;;15.30;;
16662;SDS011;8445;51.270;9.434;2024-03-02T04:30:36;20.03;;;15.53;;
16662;SDS011;8445;51.270;9.434;2024-03-02T04:33:02;27.23;;;17.20;;
16662;SDS011;8445;51.270;9.434;2024-03-02T04:35:28;20.03;;;15.87;;
16662;SDS011;8445;51.270;9.434;2024-03-02T04:37:54;21.60;;;15.27;;
16662;SDS011;8445;51.270;9.434;2024-03-02T04:40:20;17.17;;;13.97;;
16662;SDS011;8445;51.270;9.434;2024-03-02T04:42:46;18.63;;;14.13;;
16662;SDS011;8445;51.270;9.434;2024-03-02T04:45:12;22.67;;;15.17;;
16662;SDS011;8445;51.270;9.434;2024-03-02T04:47:38;20.87;;;15.37;;
16662;SDS011;8445;51.270;9.434;2024-03-02T04:50:04;20.77;;;15.00;;
16662;SDS011;8445;51.270;9.434;2024-03-02T04:52:33;25.13;;;15.97;;
16662;SDS011;8445;51.270;9.434;2024-03-02T04:54:59;22.13;;;15.10;;
16662;SDS011;8445;51.270;9.434;2024-03-02T04:57:43;17.87;;;14.50;;
16662;SDS011;8445;51.270;9.434;2024-03-02T05:00:09;22.03;;;14.37;;
16662;SDS011;8445;51.270;9.434;2024-03-02T05:02:36;20.10;;;15.03;;
16662;SDS011;8445;51.270;9.434;2024-03-02T05:05:02;26.13;;;16.77;;
16662;SDS011;8445;51.270;9.434;2024-03-02T05:07:28;23.87;;;15.53;;
16662;SDS011;8445;51.270;9.434;2024-03-02T05:09:54;24.80;;;16.37;;
16662;SDS011;8445;51.270;9.434;2024-03-02T05:12:20;20.73;;;15.07;;
16662;SDS011;8445;51.270;9.434;2024-03-02T05:15:15;21.13;;;15.20;;
16662;SDS011;8445;51.270;9.434;2024-03-02T05:17:41;22.63;;;15.67;;
16662;SDS011;8445;51.270;9.434;2024-03-02T05:20:10;24.40;;;16.40;;
16662;SDS011;8445;51.270;9.434;2024-03-02T05:22:36;23.43;;;15.10;;
16662;SDS011;8445;51.270;9.434;2024-03-02T05:25:03;23.70;;;15.10;;
16662;SDS011;8445;51.270;9.434;2024-03-02T05:27:30;24.37;;;15.37;;
16662;SDS011;8445;51.270;9.434;2024-03-02T05:29:58;20.43;;;15.60;;
16662;SDS011;8445;51.270;9.434;2024-03-02T05:32:24;20.70;;;13.30;;
16662;SDS011;8445;51.270;9.434;2024-03-02T05:34:50;20.90;;;13.23;;
16662;SDS011;8445;51.270;9.434;2024-03-02T05:37:17;23.67;;;14.20;;
16662;SDS011;8445;51.270;9.434;2024-03-02T05:39:43;22.67;;;15.33;;
16662;SDS011;8445;51.270;9.434;2024-03-02T05:42:09;22.07;;;15.77;;
16662;SDS011;8445;51.270;9.434;2024-03-02T05:44:36;22.37;;;14.17;;
16662;SDS011;8445;51.270;9.434;2024-03-02T05:47:02;20.53;;;15.70;;
16662;SDS011;8445;51.270;9.434;2024-03-02T05:49:29;25.67;;;15.77;;
16662;SDS011;8445;51.270;9.434;2024-03-02T05:51:55;27.27;;;16.30;;
16662;SDS011;8445;51.270;9.434;2024-03-02T05:54:21;24.40;;;15.80;;
16662;SDS011;8445;51.270;9.434;2024-03-02T05:56:47;20.80;;;14.77;;
16662;SDS011;8445;51.270;9.434;2024-03-02T05:59:13;25.07;;;16.60;;
16662;SDS011;8445;51.270;9.434;2024-03-02T06:01:39;32.60;;;18.07;;
16662;SDS011;8445;51.270;9.434;2024-03-02T06:04:06;23.80;;;15.23;;
16662;SDS011;8445;51.270;9.434;2024-03-02T06:06:32;22.60;;;15.07;;
16662;SDS011;8445;51.270;9.434;2024-03-02T06:09:02;26.80;;;16.80;;
16662;SDS011;8445;51.270;9.434;2024-03-02T06:11:38;25.33;;;16.20;;
16662;SDS011;8445;51.270;9.434;2024-03-02T06:14:06;21.60;;;14.50;;
16662;SDS011;8445;51.270;9.434;2024-03-02T06:16:34;24.70;;;15.93;;
16662;SDS011;8445;51.270;9.434;2024-03-02T06:19:00;22.73;;;13.90;;
16662;SDS011;8445;51.270;9.434;2024-03-02T06:21:26;20.57;;;14.43;;
16662;SDS011;8445;51.270;9.434;2024-03-02T06:23:53;22.93;;;15.93;;
16662;SDS011;8445;51.270;9.434;2024-03-02T06:26:19;23.70;;;15.93;;
16662;SDS011;8445;51.270;9.434;2024-03-02T06:28:45;22.10;;;15.10;;
16662;SDS011;8445;51.270;9.434;2024-03-02T06:31:11;19.00;;;13.87;;
16662;SDS011;8445;51.270;9.434;2024-03-02T06:33:37;23.87;;;16.07;;
16662;SDS011;8445;51.270;9.434;2024-03-02T06:36:05;22.63;;;15.33;;
16662;SDS011;8445;51.270;9.434;2024-03-02T06:38:33;19.97;;;14.27;;
16662;SDS011;8445;51.270;9.434;2024-03-02T06:41:00;23.57;;;15.53;;
16662;SDS011;8445;51.270;9.434;2024-03-02T06:43:25;22.43;;;15.00;;
16662;SDS011;8445;51.270;9.434;2024-03-02T06:45:51;23.43;;;15.03;;
16662;SDS011;8445;51.270;9.434;2024-03-02T06:48:18;27.83;;;15.00;;
16662;SDS011;8445;51.270;9.434;2024-03-02T06:50:48;27.70;;;16.60;;
16662;SDS011;8445;51.270;9.434;2024-03-02T06:53:15;26.30;;;15.77;;
16662;SDS011;8445;51.270;9.434;2024-03-02T06:55:43;25.70;;;16.43;;
16662;SDS011;8445;51.270;9.434;2024-03-02T06:58:12;22.23;;;14.73;;
16662;SDS011;8445;51.270;9.434;2024-03-02T07:00:40;20.90;;;15.20;;
16662;SDS011;8445;51.270;9.434;2024-03-02T07:03:07;21.10;;;15.13;;
16662;SDS011;8445;51.270;9.434;2024-03-02T07:05:33;24.90;;;16.23;;
16662;SDS011;8445;51.270;9.434;2024-03-02T07:07:59;22.73;;;14.60;;
16662;SDS011;8445;51.270;9.434;2024-03-02T07:10:26;27.70;;;16.77;;
16662;SDS011;8445;51.270;9.434;2024-03-02T07:12:52;27.70;;;16.70;;
16662;SDS011;8445;51.270;9.434;2024-03-02T07:15:18;23.80;;;16.67;;
16662;SDS011;8445;51.270;9.434;2024-03-02T07:18:08;23.70;;;15.03;;
16662;SDS011;8445;51.270;9.434;2024-03-02T07:20:34;30.17;;;16.83;;
16662;SDS011;8445;51.270;9.434;2024-03-02T07:23:00;24.37;;;16.47;;
16662;SDS011;8445;51.270;9.434;2024-03-02T07:25:25;25.43;;;16.47;;
16662;SDS011;8445;51.270;9.434;2024-03-02T07:27:51;31.13;;;17.20;;
16662;SDS011;8445;51.270;9.434;2024-03-02T07:30:18;27.70;;;16.70;;
16662;SDS011;8445;51.270;9.434;2024-03-02T07:32:43;23.60;;;17.03;;
16662;SDS011;8445;51.270;9.434;2024-03-02T07:35:14;25.33;;;17.40;;
16662;SDS011;8445;51.270;9.434;2024-03-02T07:37:43;22.20;;;16.23;;
16662;SDS011;8445;51.270;9.434;2024-03-02T07:40:10;28.63;;;17.33;;
16662;SDS011;8445;51.270;9.434;2024-03-02T07:42:37;27.92;;;17.92;;
16662;SDS011;8445;51.270;9.434;2024-03-02T07:45:08;28.97;;;16.60;;
16662;SDS011;8445;51.270;9.434;2024-03-02T07:47:37;26.03;;;17.10;;
16662;SDS011;8445;51.270;9.434;2024-03-02T07:50:03;24.10;;;15.97;;
16662;SDS011;8445;51.270;9.434;2024-03-02T07:52:31;23.02;;;15.52;;
16662;SDS011;8445;51.270;9.434;2024-03-02T07:54:58;26.23;;;16.17;;
16662;SDS011;8445;51.270;9.434;2024-03-02T07:57:24;24.80;;;15.85;;
16662;SDS011;8445;51.270;9.434;2024-03-02T07:59:51;22.33;;;15.38;;
16662;SDS011;8445;51.270;9.434;2024-03-02T08:02:19;22.90;;;14.23;;
16662;SDS011;8445;51.270;9.434;2024-03-02T08:04:47;25.38;;;16.05;;
16662;SDS011;8445;51.270;9.434;2024-03-02T08:07:13;20.83;;;15.53;;
16662;SDS011;8445;51.270;9.434;2024-03-02T08:09:39;21.85;;;16.02;;
16662;SDS011;8445;51.270;9.434;2024-03-02T08:12:05;22.35;;;16.35;;
16662;SDS011;8445;51.270;9.434;2024-03-02T08:14:31;25.35;;;15.80;;
16662;SDS011;8445;51.270;9.434;2024-03-02T08:16:57;20.97;;;14.93;;
16662;SDS011;8445;51.270;9.434;2024-03-02T08:19:23;21.48;;;15.20;;
16662;SDS011;8445;51.270;9.434;2024-03-02T08:21:49;25.48;;;15.65;;
16662;SDS011;8445;51.270;9.434;2024-03-02T08:24:15;18.45;;;13.75;;
16662;SDS011;8445;51.270;9.434;2024-03-02T08:26:43;21.63;;;13.73;;
16662;SDS011;8445;51.270;9.434;2024-03-02T08:29:09;17.95;;;13.73;;
16662;SDS011;8445;51.270;9.434;2024-03-02T08:31:36;20.90;;;13.80;;
16662;SDS011;8445;51.270;9.434;2024-03-02T08:34:02;18.05;;;14.13;;
16662;SDS011;8445;51.270;9.434;2024-03-02T08:36:28;20.92;;;14.75;;
16662;SDS011;8445;51.270;9.434;2024-03-02T08:38:54;24.00;;;14.45;;
16662;SDS011;8445;51.270;9.434;2024-03-02T08:41:20;19.58;;;13.60;;
16662;SDS011;8445;51.270;9.434;2024-03-02T08:43:46;21.23;;;13.57;;
16662;SDS011;8445;51.270;9.434;2024-03-02T08:46:12;21.63;;;14.23;;
16662;SDS011;8445;51.270;9.434;2024-03-02T08:48:38;18.42;;;14.23;;
16662;SDS011;8445;51.270;9.434;2024-03-02T08:51:04;17.33;;;12.75;;
16662;SDS011;8445;51.270;9.434;2024-03-02T08:53:33;20.00;;;14.15;;
16662;SDS011;8445;51.270;9.434;2024-03-02T08:55:59;20.10;;;14.38;;
16662;SDS011;8445;51.270;9.434;2024-03-02T08:58:25;17.48;;;12.50;;
16662;SDS011;8445;51.270;9.434;2024-03-02T09:00:52;19.13;;;13.18;;
16662;SDS011;8445;51.270;9.434;2024-03-02T09:03:18;19.35;;;14.82;;
16662;SDS011;8445;51.270;9.434;2024-03-02T09:05:43;16.92;;;12.77;;
16662;SDS011;8445;51.270;9.434;2024-03-02T09:08:10;16.73;;;13.73;;
16662;SDS011;8445;51.270;9.434;2024-03-02T09:10:35;17.17;;;12.90;;
16662;SDS011;8445;51.270;9.434;2024-03-02T09:13:03;18.70;;;14.02;;
16662;SDS011;8445;51.270;9.434;2024-03-02T09:15:33;17.17;;;11.98;;
16662;SDS011;8445;51.270;9.434;2024-03-02T09:18:03;21.83;;;14.70;;
16662;SDS011;8445;51.270;9.434;2024-03-02T09:20:33;17.48;;;13.18;;
16662;SDS011;8445;51.270;9.434;2024-03-02T09:22:59;15.52;;;12.93;;
16662;SDS011;8445;51.270;9.434;2024-03-02T09:25:25;15.80;;;13.60;;
16662;SDS011;8445;51.270;9.434;2024-03-02T09:28:00;15.68;;;12.70;;
16662;SDS011;8445;51.270;9.434;2024-03-02T09:30:29;18.00;;;13.68;;
16662;SDS011;8445;51.270;9.434;2024-03-02T09:33:06;18.02;;;13.57;;
16662;SDS011;8445;51.270;9.434;2024-03-02T09:35:40;14.98;;;12.52;;
16662;SDS011;8445;51.270;9.434;2024-03-02T09:38:06;16.92;;;12.57;;
16662;SDS011;8445;51.270;9.434;2024-03-02T09:40:36;20.30;;;13.68;;
16662;SDS011;8445;51.270;9.434;2024-03-02T09:43:04;17.00;;;12.93;;
16662;SDS011;8445;51.270;9.434;2024-03-02T09:45:31;17.30;;;13.90;;
16662;SDS011;8445;51.270;9.434;2024-03-02T09:47:58;16.70;;;13.38;;
16662;SDS011;8445;51.270;9.434;2024-03-02T09:50:27;17.63;;;12.85;;
16662;SDS011;8445;51.270;9.434;2024-03-02T09:52:57;15.88;;;13.30;;
16662;SDS011;8445;51.270;9.434;2024-03-02T09:55:29;16.92;;;12.95;;
16662;SDS011;8445;51.270;9.434;2024-03-02T09:58:00;17.70;;;15.23;;
16662;SDS011;8445;51.270;9.434;2024-03-02T10:00:39;15.32;;;13.18;;
16662;SDS011;8445;51.270;9.434;2024-03-02T10:03:14;18.45;;;14.35;;
16662;SDS011;8445;51.270;9.434;2024-03-02T10:05:41;17.85;;;13.93;;
16662;SDS011;8445;51.270;9.434;2024-03-02T10:08:08;17.27;;;14.38;;
16662;SDS011;8445;51.270;9.434;2024-03-02T10:10:45;19.38;;;16.25;;
16662;SDS011;8445;51.270;9.434;2024-03-02T10:13:21;18.23;;;14.30;;
16662;SDS011;8445;51.270;9.434;2024-03-02T10:15:53;15.90;;;14.20;;
16662;SDS011;8445;51.270;9.434;2024-03-02T10:18:26;17.25;;;13.48;;
16662;SDS011;8445;51.270;9.434;2024-03-02T10:20:57;17.88;;;14.63;;
16662;SDS011;8445;51.270;9.434;2024-03-02T10:23:40;24.60;;;14.90;;
16662;SDS011;8445;51.270;9.434;2024-03-02T10:26:23;16.45;;;13.00;;
16662;SDS011;8445;51.270;9.434;2024-03-02T10:28:54;16.83;;;13.73;;
16662;SDS011;8445;51.270;9.434;2024-03-02T10:31:28;17.98;;;15.10;;
16662;SDS011;8445;51.270;9.434;2024-03-02T10:33:54;15.75;;;13.90;;
16662;SDS011;8445;51.270;9.434;2024-03-02T10:36:25;17.35;;;14.13;;
16662;SDS011;8445;51.270;9.434;2024-03-02T10:38:52;15.52;;;13.68;;
16662;SDS011;8445;51.270;9.434;2024-03-02T10:41:24;15.02;;;13.25;;
16662;SDS011;8445;51.270;9.434;2024-03-02T10:43:53;15.07;;;13.57;;
16662;SDS011;8445;51.270;9.434;2024-03-02T10:46:28;16.52;;;13.65;;
16662;SDS011;8445;51.270;9.434;2024-03-02T10:49:01;17.92;;;13.25;;
16662;SDS011;8445;51.270;9.434;2024-03-02T10:51:30;15.75;;;13.43;;
16662;SDS011;8445;51.270;9.434;2024-03-02T10:54:01;15.30;;;13.55;;
16662;SDS011;8445;51.270;9.434;2024-03-02T10:56:32;13.60;;;12.23;;
16662;SDS011;8445;51.270;9.434;2024-03-02T10:59:03;16.25;;;13.32;;
16662;SDS011;8445;51.270;9.434;2024-03-02T11:01:42;14.32;;;12.82;;
16662;SDS011;8445;51.270;9.434;2024-03-02T11:04:14;14.70;;;12.02;;
16662;SDS011;8445;51.270;9.434;2024-03-02T11:06:45;13.25;;;11.88;;
16662;SDS011;8445;51.270;9.434;2024-03-02T11:09:16;14.63;;;13.13;;
16662;SDS011;8445;51.270;9.434;2024-03-02T11:12:12;13.95;;;12.45;;
16662;SDS011;8445;51.270;9.434;2024-03-02T11:14:48;14.32;;;12.73;;
16662;SDS011;8445;51.270;9.434;2024-03-02T11:17:20;16.83;;;12.95;;
16662;SDS011;8445;51.270;9.434;2024-03-02T11:19:53;12.13;;;10.93;;
16662;SDS011;8445;51.270;9.434;2024-03-02T11:22:20;14.35;;;11.63;;
16662;SDS011;8445;51.270;9.434;2024-03-02T11:24:48;13.15;;;11.68;;
16662;SDS011;8445;51.270;9.434;2024-03-02T11:30:48;12.20;;;10.95;;
16662;SDS011;8445;51.270;9.434;2024-03-02T11:33:24;13.68;;;12.25;;
16662;SDS011;8445;51.270;9.434;2024-03-02T11:35:56;11.88;;;10.65;;
16662;SDS011;8445;51.270;9.434;2024-03-02T11:38:24;12.48;;;11.05;;
16662;SDS011;8445;51.270;9.434;2024-03-02T11:40:56;13.07;;;11.18;;
16662;SDS011;8445;51.270;9.434;2024-03-02T11:43:27;12.50;;;11.00;;
16662;SDS011;8445;51.270;9.434;2024-03-02T11:45:59;11.57;;;10.38;;
16662;SDS011;8445;51.270;9.434;2024-03-02T11:48:29;10.82;;;9.77;;
16662;SDS011;8445;51.270;9.434;2024-03-02T11:50:57;10.18;;;9.27;;
16662;SDS011;8445;51.270;9.434;2024-03-02T11:53:26;11.85;;;10.73;;
16662;SDS011;8445;51.270;9.434;2024-03-02T11:55:57;10.50;;;9.48;;
16662;SDS011;8445;51.270;9.434;2024-03-02T11:58:24;10.32;;;9.32;;
16662;SDS011;8445;51.270;9.434;2024-03-02T12:01:39;11.13;;;10.20;;
16662;SDS011;8445;51.270;9.434;2024-03-02T12:04:07;9.85;;;8.95;;
16662;SDS011;8445;51.270;9.434;2024-03-02T12:06:38;11.05;;;9.95;;
16662;SDS011;8445;51.270;9.434;2024-03-02T12:09:04;11.13;;;10.10;;
16662;SDS011;8445;51.270;9.434;2024-03-02T12:11:31;11.60;;;9.43;;
16662;SDS011;8445;51.270;9.434;2024-03-02T12:13:57;9.23;;;8.43;;
16662;SDS011;8445;51.270;9.434;2024-03-02T12:16:24;9.10;;;8.20;;
16662;SDS011;8445;51.270;9.434;2024-03-02T12:18:51;9.40;;;8.45;;
16662;SDS011;8445;51.270;9.434;2024-03-02T12:21:17;9.23;;;8.43;;
16662;SDS011;8445;51.270;9.434;2024-03-02T12:23:47;9.65;;;8.75;;
16662;SDS011;8445;51.270;9.434;2024-03-02T12:26:15;9.85;;;8.85;;
16662;SDS011;8445;51.270;9.434;2024-03-02T12:28:41;9.55;;;8.68;;
16662;SDS011;8445;51.270;9.434;2024-03-02T12:31:08;10.10;;;8.27;;
16662;SDS011;8445;51.270;9.434;2024-03-02T12:33:35;8.93;;;8.13;;
16662;SDS011;8445;51.270;9.434;2024-03-02T12:36:01;9.35;;;8.45;;
16662;SDS011;8445;51.270;9.434;2024-03-02T12:38:28;9.75;;;8.85;;
16662;SDS011;8445;51.270;9.434;2024-03-02T12:40:56;9.02;;;8.23;;
16662;SDS011;8445;51.270;9.434;2024-03-02T12:43:22;10.15;;;8.23;;
16662;SDS011;8445;51.270;9.434;2024-03-02T12:45:49;9.55;;;8.50;;
16662;SDS011;8445;51.270;9.434;2024-03-02T12:48:15;12.02;;;8.23;;
16662;SDS011;8445;51.270;9.434;2024-03-02T12:50:42;9.32;;;8.50;;
16662;SDS011;8445;51.270;9.434;2024-03-02T12:53:13;9.82;;;8.82;;
16662;SDS011;8445;51.270;9.434;2024-03-02T12:55:42;8.60;;;7.80;;
16662;SDS011;8445;51.270;9.434;2024-03-02T12:58:19;9.25;;;8.35;;
16662;SDS011;8445;51.270;9.434;2024-03-02T13:00:48;9.82;;;8.77;;
16662;SDS011;8445;51.270;9.434;2024-03-02T13:03:17;8.70;;;8.00;;
16662;SDS011;8445;51.270;9.434;2024-03-02T13:05:49;10.40;;;8.55;;
16662;SDS011;8445;51.270;9.434;2024-03-02T13:08:16;9.18;;;8.25;;
16662;SDS011;8445;51.270;9.434;2024-03-02T13:10:42;8.70;;;7.95;;
16662;SDS011;8445;51.270;9.434;2024-03-02T13:13:08;8.50;;;7.75;;
16662;SDS011;8445;51.270;9.434;2024-03-02T13:15:34;8.73;;;7.95;;
16662;SDS011;8445;51.270;9.434;2024-03-02T13:18:12;8.55;;;7.75;;
16662;SDS011;8445;51.270;9.434;2024-03-02T13:20:38;9.18;;;8.38;;
16662;SDS011;8445;51.270;9.434;2024-03-02T13:23:05;7.53;;;7.00;;
16662;SDS011;8445;51.270;9.434;2024-03-02T13:25:31;8.68;;;7.28;;
16662;SDS011;8445;51.270;9.434;2024-03-02T13:28:06;8.45;;;7.75;;
16662;SDS011;8445;51.270;9.434;2024-03-02T13:30:42;8.82;;;7.53;;
16662;SDS011;8445;51.270;9.434;2024-03-02T13:33:08;7.93;;;7.32;;
16662;SDS011;8445;51.270;9.434;2024-03-02T13:35:37;7.57;;;6.95;;
16662;SDS011;8445;51.270;9.434;2024-03-02T13:38:02;8.07;;;7.28;;
16662;SDS011;8445;51.270;9.434;2024-03-02T13:40:29;8.30;;;7.60;;
16662;SDS011;8445;51.270;9.434;2024-03-02T13:43:00;7.90;;;7.10;;
16662;SDS011;8445;51.270;9.434;2024-03-02T13:45:27;7.32;;;6.72;;
16662;SDS011;8445;51.270;9.434;2024-03-02T13:47:53;6.13;;;5.63;;
16662;SDS011;8445;51.270;9.434;2024-03-02T13:50:19;5.70;;;5.00;;
16662;SDS011;8445;51.270;9.434;2024-03-02T13:52:45;5.80;;;5.40;;
16662;SDS011;8445;51.270;9.434;2024-03-02T13:55:12;4.97;;;4.50;;
16662;SDS011;8445;51.270;9.434;2024-03-02T13:57:38;4.43;;;4.13;;
16662;SDS011;8445;51.270;9.434;2024-03-02T14:00:05;5.22;;;4.30;;
16662;SDS011;8445;51.270;9.434;2024-03-02T14:02:37;5.10;;;4.70;;
16662;SDS011;8445;51.270;9.434;2024-03-02T14:05:07;4.97;;;4.47;;
16662;SDS011;8445;51.270;9.434;2024-03-02T14:07:42;4.72;;;4.40;;
16662;SDS011;8445;51.270;9.434;2024-03-02T14:10:16;5.43;;;4.80;;
16662;SDS011;8445;51.270;9.434;2024-03-02T14:12:43;4.97;;;4.60;;
16662;SDS011;8445;51.270;9.434;2024-03-02T14:15:09;5.10;;;4.70;;
16662;SDS011;8445;51.270;9.434;2024-03-02T14:17:35;4.53;;;4.20;;
16662;SDS011;8445;51.270;9.434;2024-03-02T14:20:04;4.32;;;4.05;;
16662;SDS011;8445;51.270;9.434;2024-03-02T14:22:31;4.85;;;4.40;;
16662;SDS011;8445;51.270;9.434;2024-03-02T14:24:57;5.25;;;4.28;;
16662;SDS011;8445;51.270;9.434;2024-03-02T14:27:29;5.13;;;4.82;;
16662;SDS011;8445;51.270;9.434;2024-03-02T14:30:03;4.78;;;4.50;;
16662;SDS011;8445;51.270;9.434;2024-03-02T14:32:33;4.50;;;4.20;;
16662;SDS011;8445;51.270;9.434;2024-03-02T14:34:58;5.18;;;4.75;;
16662;SDS011;8445;51.270;9.434;2024-03-02T14:37:24;4.68;;;4.43;;
16662;SDS011;8445;51.270;9.434;2024-03-02T14:39:51;4.20;;;3.97;;
16662;SDS011;8445;51.270;9.434;2024-03-02T14:42:17;4.60;;;4.30;;
16662;SDS011;8445;51.270;9.434;2024-03-02T14:44:43;4.97;;;4.68;;
16662;SDS011;8445;51.270;9.434;2024-03-02T14:47:09;5.22;;;4.82;;
16662;SDS011;8445;51.270;9.434;2024-03-02T14:49:37;5.85;;;5.45;;
16662;SDS011;8445;51.270;9.434;2024-03-02T14:52:06;5.13;;;4.80;;
16662;SDS011;8445;51.270;9.434;2024-03-02T14:54:34;5.25;;;4.82;;
16662;SDS011;8445;51.270;9.434;2024-03-02T14:57:00;5.72;;;5.28;;
16662;SDS011;8445;51.270;9.434;2024-03-02T14:59:33;6.00;;;5.40;;
16662;SDS011;8445;51.270;9.434;2024-03-02T15:02:00;6.78;;;6.10;;
16662;SDS011;8445;51.270;9.434;2024-03-02T15:04:27;8.30;;;6.70;;